Nearby METAR Reports

 

KOFF - Offutt Afb/Belle, Nebraska, USA
Distance from station: SE 6mi, 10km
Updated: 08/15/2018 8:56pm
Clear
Clear
 Wind from calm
Wind: Calm
Temperature: 72°F , 22°C
Dew Point: 70°F , 21°C
Humidity: 94%
Barometer: 29.91 inHg , 1012.9 hPa
Clouds: Clear
Visibility: 10 miles , 16 km
2018/08/16 01:56 KOFF 160156Z AUTO 00000KT 10SM CLR 22/21 A2991 RMK AO2 SLP126 T02230207 $
KMLE - Omaha/Millard, Nebraska, USA
Distance from station: W 7mi, 11km
Updated: 08/15/2018 8:55pm
Clear
Clear
 Wind from calm
Wind: Calm
Temperature: 77°F , 25°C
Dew Point: 70°F , 21°C
Humidity: 79%
Barometer: 29.92 inHg , 1013.2 hPa
Clouds: Clear
Visibility: 10 miles , 16 km
2018/08/16 01:55 KMLE 160155Z AUTO 00000KT 10SM CLR 25/21 A2992 RMK AO2 T02530210
 
KOMA - Omaha/Eppley, Nebraska, USA
Distance from station: NNE 10mi, 15km
Updated: 08/15/2018 8:52pm
Mostly cloudy
Mostly cloudy
 Wind from calm
Wind: Calm
Temperature: 75°F , 24°C
Dew Point: 70°F , 21°C
Humidity: 83%
Barometer: 29.92 inHg , 1013.2 hPa
Clouds: Mostly cloudy
Visibility: 10 miles , 16 km
Cloud details: Few Clouds 5000 ft
Partly cloudy 8000 ft
Mostly cloudy 25000 ft
2018/08/16 01:52 KOMA 160152Z 00000KT 10SM FEW050 SCT080 BKN250 24/21 A2992 RMK AO2 SLP122 T02440206
KCBF - Council Bluffs, Iowa, USA
Distance from station: ENE 12mi, 20km
Updated: 08/15/2018 9:15pm
Partly cloudy
Partly cloudy
 Wind from calm
Wind: Calm
Temperature: 72°F , 22°C
Dew Point: 72°F , 22°C
Humidity: 100%
Barometer: 29.93 inHg , 1013.5 hPa
Clouds: Partly cloudy
Visibility: 10 miles , 16 km
Cloud details: Partly cloudy 8000 ft
2018/08/16 02:15 KCBF 160215Z AUTO 00000KT 10SM SCT080 22/22 A2993 RMK AO2
 
KBTA - Blair Muni, Nebraska, USA
Distance from station: NNW 17mi, 27km
Updated: 08/15/2018 9:15pm
Clear
Clear
 Wind from calm
Wind: Calm
Temperature: 72°F , 22°C
Dew Point: 70°F , 21°C
Humidity: 94%
Barometer: 29.93 inHg , 1013.5 hPa
Clouds: Clear
Visibility: 10 miles , 16 km
2018/08/16 02:15 KBTA 160215Z AUTO 00000KT 10SM CLR 22/21 A2993 RMK AO2 T02220208
KPMV - Plattsmouth Muni, Nebraska, USA
Distance from station: SSE 17mi, 28km
Updated: 08/15/2018 9:15pm
Clear
Clear
 Wind from calm
Wind: Calm
Temperature: 73°F , 23°C
Dew Point: 70°F , 21°C
Humidity: 89%
Barometer: 29.93 inHg , 1013.5 hPa
Clouds: Clear
Visibility: 10 miles , 16 km
2018/08/16 02:15 KPMV 160215Z AUTO 00000KT 10SM CLR 23/21 A2993 RMK AO2 T02310210
 
KAHQ - Wahoo, Nebraska, USA
Distance from station: W 32mi, 52km
Updated: 08/15/2018 9:15pm
Clear
Clear
 Wind from calm
Wind: Calm
Temperature: 72°F , 22°C
Dew Point: 72°F , 22°C
Humidity: 100%
Barometer: 29.94 inHg , 1013.9 hPa
Clouds: Clear
Visibility: 10 miles , 16 km
2018/08/16 02:15 KAHQ 160215Z AUTO 00000KT 10SM CLR 22/22 A2994 RMK AO2 T02190215
KFET - Fremont Muni Arp, Nebraska, USA
Distance from station: WNW 33mi, 53km
Updated: 08/15/2018 8:55pm
Clear
Clear
 Wind from calm
Wind: Calm
Temperature: 77°F , 25°C
Dew Point: 70°F , 21°C
Humidity: 79%
Barometer: 29.94 inHg , 1013.9 hPa
Clouds: Clear
Visibility: 10 miles , 16 km
2018/08/16 01:55 KFET 160155Z AUTO 00000KT 10SM CLR 25/21 A2994 RMK AO2 T02480210
 
KRDK - Red Oak, Iowa, USA
Distance from station: ESE 39mi, 63km
Updated: 08/15/2018 9:15pm
Clear
Clear
 Wind from calm
Wind: Calm
Temperature: 72°F , 22°C
Dew Point: 70°F , 21°C
Humidity: 94%
Barometer: 29.92 inHg , 1013.2 hPa
Clouds: Clear
Visibility: 10 miles , 16 km
2018/08/16 02:15 KRDK 160215Z AUTO 00000KT 10SM CLR 22/21 A2992 RMK AO2
KTQE - Tekamah, Nebraska, USA
Distance from station: NNW 41mi, 66km
Updated: 08/15/2018 8:54pm
Overcast
Overcast
 Wind from calm
Wind: Calm
Temperature: 73°F , 23°C
Dew Point: 70°F , 21°C
Humidity: 89%
Barometer: 29.92 inHg , 1013.2 hPa
Clouds: Overcast
Visibility: 10 miles , 16 km
Cloud details: Few Clouds 8000 ft
Overcast 9500 ft
2018/08/16 01:54 KTQE 160154Z AUTO 00000KT 10SM FEW080 OVC095 23/21 A2992 RMK AO2 SLP118 T02330211
 
KAFK - Nebraska City, Nebraska, USA
Distance from station: S 42mi, 67km
Updated: 08/15/2018 9:15pm
Clear
Clear
 Wind from NW
Wind: NW 3 mph , 6 km/h
Temperature: 73°F , 23°C
Dew Point: 73°F , 23°C
Humidity: 100%
Barometer: 29.93 inHg , 1013.5 hPa
Clouds: Clear
Visibility: 10 miles , 16 km
2018/08/16 02:15 KAFK 160215Z AUTO 31003KT 10SM CLR 23/23 A2993 RMK AO2 T02280228
KHNR - Harlan Muni, Iowa, USA
Distance from station: NE 43mi, 69km
Updated: 08/15/2018 9:15pm

 Wind from calm
Wind: Calm
Temperature: 72°F , 22°C
Dew Point: 70°F , 21°C
Humidity: 94%
Barometer: 29.93 inHg , 1013.5 hPa
Visibility: 10 miles , 16 km
2018/08/16 02:15 KHNR 160215Z AUTO 00000KT 10SM 22/21 A2993 RMK AO2
 
KSDA - Shenandoah Muni, Iowa, USA
Distance from station: SE 43mi, 69km
Updated: 08/15/2018 9:15pm
Clear
Clear
 Wind from NNE
Wind: NNE 5 mph , 7 km/h
Temperature: 73°F , 23°C
Dew Point: 72°F , 22°C
Humidity: 94%
Barometer: 29.92 inHg , 1013.2 hPa
Clouds: Clear
Visibility: 10 miles , 16 km
2018/08/16 02:15 KSDA 160215Z AUTO 02004KT 10SM CLR 23/22 A2992 RMK AO2
KLNK - Lincoln, Nebraska, USA
Distance from station: WSW 47mi, 76km
Updated: 08/15/2018 8:54pm
Clear
Clear
 Wind from NE
Wind: NE 3 mph , 6 km/h
Temperature: 73°F , 23°C
Dew Point: 68°F , 20°C
Humidity: 83%
Barometer: 29.93 inHg , 1013.5 hPa
Clouds: Clear
Visibility: 10 miles , 16 km
2018/08/16 01:54 KLNK 160154Z 05003KT 10SM CLR 23/20 A2993 RMK AO2 SLP127 T02330200
 
KAIO - Atlantic, Iowa, USA
Distance from station: ENE 51mi, 82km
Updated: 08/15/2018 9:15pm
Overcast
Overcast
 Wind from N
Wind: N 7 mph , 11 km/h
Temperature: 73°F , 23°C
Dew Point: 72°F , 22°C
Humidity: 94%
Barometer: 29.92 inHg , 1013.2 hPa
Clouds: Overcast
Visibility: 10 miles , 16 km
Cloud details: Overcast 9000 ft
2018/08/16 02:15 KAIO 160215Z AUTO 01006KT 10SM OVC090 23/22 A2992 RMK AO2
KICL - Clarinda, Iowa, USA
Distance from station: ESE 60mi, 97km
Updated: 08/15/2018 9:15pm
Clear
Clear
 Wind from NE
Wind: NE 3 mph , 6 km/h
Temperature: 72°F , 22°C
Dew Point: 70°F , 21°C
Humidity: 94%
Barometer: 29.93 inHg , 1013.5 hPa
Clouds: Clear
Visibility: 10 miles , 16 km
2018/08/16 02:15 KICL 160215Z AUTO 04003KT 10SM CLR 22/21 A2993 RMK AO2
 
KDNS - Denison, Iowa, USA
Distance from station: NNE 62mi, 100km
Updated: 08/15/2018 9:15pm
Mist, Overcast
Mist, Overcast
 Wind from NNE
Wind: NNE 3 mph , 6 km/h
Temperature: 72°F , 22°C
Dew Point: 72°F , 22°C
Humidity: 100%
Barometer: 29.95 inHg , 1014.2 hPa
Summary: Mist
Clouds: Overcast
Visibility: 4 miles , 6 km
Cloud details: Mostly cloudy 7000 ft
Overcast 9000 ft
2018/08/16 02:15 KDNS 160215Z AUTO 02003KT 4SM BR BKN070 OVC090 22/22 A2995 RMK AO2
KADU - Audubon, Iowa, USA
Distance from station: ENE 65mi, 105km
Updated: 08/15/2018 9:15pm
Mostly cloudy
Mostly cloudy
 Wind from calm
Wind: Calm
Temperature: 72°F , 22°C
Dew Point: 70°F , 21°C
Humidity: 94%
Barometer: 29.94 inHg , 1013.9 hPa
Clouds: Mostly cloudy
Visibility: 7 miles , 11 km
Cloud details: Partly cloudy 8000 ft
Mostly cloudy 9000 ft
2018/08/16 02:15 KADU 160215Z AUTO 00000KT 7SM SCT080 BKN090 22/21 A2994 RMK AO2
 
KOLU - Columbus Muni, Nebraska, USA
Distance from station: WNW 71mi, 115km
Updated: 08/15/2018 8:56pm
Clear
Clear
 Wind from calm
Wind: Calm
Temperature: 72°F , 22°C
Dew Point: 70°F , 21°C
Humidity: 94%
Barometer: 29.95 inHg , 1014.2 hPa
Clouds: Clear
Visibility: 10 miles , 16 km
2018/08/16 01:56 KOLU 160156Z AUTO 00000KT 10SM CLR 22/21 A2995 RMK AO2 SLP133 T02220206
KBIE - Beatrice Municip, Nebraska, USA
Distance from station: SSW 75mi, 120km
Updated: 08/15/2018 8:55pm
Partly cloudy
Partly cloudy
 Wind from calm
Wind: Calm
Temperature: 75°F , 24°C
Dew Point: 70°F , 21°C
Humidity: 83%
Barometer: 29.93 inHg , 1013.5 hPa
Clouds: Partly cloudy
Visibility: 10 miles , 16 km
Cloud details: Partly cloudy 3000 ft
2018/08/16 01:55 KBIE 160155Z AUTO 00000KT 10SM SCT030 24/21 A2993 RMK AO2 T02350209